sensor_id;sensor_type;location;lat;lon;timestamp;pressure;altitude;pressure_sealevel;temperature;humidity
38900;BME280;24660;43.238;26.576;2022-09-03T00:00:21;99197.53;;;20.60;100.00
38900;BME280;24660;43.238;26.576;2022-09-03T00:02:57;99188.09;;;20.78;100.00
38900;BME280;24660;43.238;26.576;2022-09-03T00:07:56;99152.78;;;21.05;100.00
38900;BME280;24660;43.238;26.576;2022-09-03T00:10:30;99157.34;;;20.98;100.00
38900;BME280;24660;43.238;26.576;2022-09-03T00:12:57;99154.56;;;20.92;100.00
38900;BME280;24660;43.238;26.576;2022-09-03T00:15:25;99148.47;;;20.90;100.00
38900;BME280;24660;43.238;26.576;2022-09-03T00:17:53;99143.09;;;20.96;100.00
38900;BME280;24660;43.238;26.576;2022-09-03T00:23:03;99143.75;;;20.70;100.00
38900;BME280;24660;43.238;26.576;2022-09-03T00:28:12;99166.59;;;20.40;100.00
38900;BME280;24660;43.238;26.576;2022-09-03T00:30:39;99176.22;;;20.21;100.00
38900;BME280;24660;43.238;26.576;2022-09-03T00:33:07;99206.63;;;19.80;100.00
38900;BME280;24660;43.238;26.576;2022-09-03T00:35:42;99262.41;;;18.70;100.00
38900;BME280;24660;43.238;26.576;2022-09-03T00:38:08;99322.25;;;19.06;100.00
38900;BME280;24660;43.238;26.576;2022-09-03T00:40:40;99328.47;;;18.84;100.00
38900;BME280;24660;43.238;26.576;2022-09-03T00:43:14;99340.41;;;18.75;100.00
38900;BME280;24660;43.238;26.576;2022-09-03T00:45:53;99338.59;;;18.67;100.00
38900;BME280;24660;43.238;26.576;2022-09-03T00:48:23;99346.97;;;18.80;100.00
38900;BME280;24660;43.238;26.576;2022-09-03T00:58:30;99384.88;;;18.80;100.00
38900;BME280;24660;43.238;26.576;2022-09-03T01:01:01;99378.78;;;18.39;100.00
38900;BME280;24660;43.238;26.576;2022-09-03T01:08:58;99379.56;;;18.17;100.00
38900;BME280;24660;43.238;26.576;2022-09-03T01:13:55;99374.34;;;18.07;100.00
38900;BME280;24660;43.238;26.576;2022-09-03T01:16:27;99372.84;;;17.96;100.00
38900;BME280;24660;43.238;26.576;2022-09-03T01:19:03;99380.78;;;17.98;100.00
38900;BME280;24660;43.238;26.576;2022-09-03T01:27:08;99395.19;;;17.82;100.00
38900;BME280;24660;43.238;26.576;2022-09-03T01:29:39;99385.25;;;17.74;100.00
38900;BME280;24660;43.238;26.576;2022-09-03T01:32:14;99390.44;;;17.84;100.00
38900;BME280;24660;43.238;26.576;2022-09-03T01:34:49;99392.31;;;17.92;100.00
38900;BME280;24660;43.238;26.576;2022-09-03T01:44:50;99378.44;;;17.87;100.00
38900;BME280;24660;43.238;26.576;2022-09-03T01:49:52;99371.66;;;18.07;100.00
38900;BME280;24660;43.238;26.576;2022-09-03T01:52:29;99356.13;;;17.93;100.00
38900;BME280;24660;43.238;26.576;2022-09-03T01:55:05;99356.19;;;17.76;100.00
38900;BME280;24660;43.238;26.576;2022-09-03T02:02:26;99338.94;;;17.69;100.00
38900;BME280;24660;43.238;26.576;2022-09-03T02:05:01;99325.91;;;17.73;100.00
38900;BME280;24660;43.238;26.576;2022-09-03T02:07:32;99324.41;;;17.70;100.00
38900;BME280;24660;43.238;26.576;2022-09-03T02:09:59;99325.59;;;17.51;100.00
38900;BME280;24660;43.238;26.576;2022-09-03T02:12:25;99320.03;;;17.69;100.00
38900;BME280;24660;43.238;26.576;2022-09-03T02:14:50;99318.47;;;17.83;100.00
38900;BME280;24660;43.238;26.576;2022-09-03T02:17:15;99310.72;;;17.72;100.00
38900;BME280;24660;43.238;26.576;2022-09-03T02:19:41;99308.72;;;17.41;100.00
38900;BME280;24660;43.238;26.576;2022-09-03T02:22:06;99313.78;;;17.52;100.00
38900;BME280;24660;43.238;26.576;2022-09-03T02:24:31;99320.06;;;17.37;100.00
38900;BME280;24660;43.238;26.576;2022-09-03T02:26:57;99327.28;;;17.44;100.00
38900;BME280;24660;43.238;26.576;2022-09-03T02:29:22;99335.03;;;17.72;100.00
38900;BME280;24660;43.238;26.576;2022-09-03T02:31:48;99328.97;;;17.78;100.00
38900;BME280;24660;43.238;26.576;2022-09-03T02:34:13;99317.06;;;17.95;100.00
38900;BME280;24660;43.238;26.576;2022-09-03T02:36:41;99305.78;;;17.92;100.00
38900;BME280;24660;43.238;26.576;2022-09-03T02:39:06;99300.56;;;17.66;100.00
38900;BME280;24660;43.238;26.576;2022-09-03T02:41:32;99293.47;;;17.73;100.00
38900;BME280;24660;43.238;26.576;2022-09-03T02:46:28;99280.25;;;17.86;100.00
38900;BME280;24660;43.238;26.576;2022-09-03T02:48:57;99276.41;;;17.64;100.00
38900;BME280;24660;43.238;26.576;2022-09-03T02:51:22;99281.69;;;17.74;100.00
38900;BME280;24660;43.238;26.576;2022-09-03T02:53:48;99276.91;;;17.68;100.00
38900;BME280;24660;43.238;26.576;2022-09-03T02:56:13;99285.34;;;17.81;100.00
38900;BME280;24660;43.238;26.576;2022-09-03T02:58:39;99268.22;;;17.97;100.00
38900;BME280;24660;43.238;26.576;2022-09-03T03:01:04;99270.19;;;18.11;100.00
38900;BME280;24660;43.238;26.576;2022-09-03T03:03:30;99263.16;;;17.94;100.00
38900;BME280;24660;43.238;26.576;2022-09-03T03:05:57;99279.13;;;17.72;100.00
38900;BME280;24660;43.238;26.576;2022-09-03T03:08:25;99291.88;;;18.03;100.00
38900;BME280;24660;43.238;26.576;2022-09-03T03:10:52;99284.88;;;18.17;100.00
38900;BME280;24660;43.238;26.576;2022-09-03T03:13:20;99293.66;;;18.19;100.00
38900;BME280;24660;43.238;26.576;2022-09-03T03:15:46;99287.63;;;18.08;100.00
38900;BME280;24660;43.238;26.576;2022-09-03T03:18:13;99291.53;;;18.06;100.00
38900;BME280;24660;43.238;26.576;2022-09-03T03:20:39;99296.56;;;18.09;100.00
38900;BME280;24660;43.238;26.576;2022-09-03T03:23:04;99305.84;;;18.15;100.00
38900;BME280;24660;43.238;26.576;2022-09-03T03:25:31;99300.13;;;18.01;100.00
38900;BME280;24660;43.238;26.576;2022-09-03T03:27:57;99304.22;;;17.97;100.00
38900;BME280;24660;43.238;26.576;2022-09-03T03:30:22;99288.06;;;17.81;100.00
38900;BME280;24660;43.238;26.576;2022-09-03T03:32:48;99289.91;;;17.80;100.00
38900;BME280;24660;43.238;26.576;2022-09-03T03:35:13;99284.88;;;17.77;100.00
38900;BME280;24660;43.238;26.576;2022-09-03T03:37:38;99288.59;;;17.76;100.00
38900;BME280;24660;43.238;26.576;2022-09-03T03:40:04;99286.41;;;17.56;100.00
38900;BME280;24660;43.238;26.576;2022-09-03T03:42:31;99287.25;;;17.56;100.00
38900;BME280;24660;43.238;26.576;2022-09-03T03:44:57;99279.97;;;17.57;100.00
38900;BME280;24660;43.238;26.576;2022-09-03T03:47:22;99283.38;;;17.50;100.00
38900;BME280;24660;43.238;26.576;2022-09-03T03:49:48;99285.41;;;17.48;100.00
38900;BME280;24660;43.238;26.576;2022-09-03T03:52:13;99292.34;;;17.43;100.00
38900;BME280;24660;43.238;26.576;2022-09-03T03:54:39;99301.47;;;17.50;100.00
38900;BME280;24660;43.238;26.576;2022-09-03T03:57:04;99304.81;;;17.44;100.00
38900;BME280;24660;43.238;26.576;2022-09-03T03:59:29;99311.38;;;17.66;100.00
38900;BME280;24660;43.238;26.576;2022-09-03T04:01:54;99309.88;;;17.63;100.00
38900;BME280;24660;43.238;26.576;2022-09-03T04:04:20;99326.78;;;17.49;100.00
38900;BME280;24660;43.238;26.576;2022-09-03T04:06:45;99333.19;;;17.56;100.00
38900;BME280;24660;43.238;26.576;2022-09-03T04:09:10;99330.69;;;17.38;100.00
38900;BME280;24660;43.238;26.576;2022-09-03T04:11:36;99339.13;;;17.27;100.00
38900;BME280;24660;43.238;26.576;2022-09-03T04:14:01;99344.53;;;17.35;100.00
38900;BME280;24660;43.238;26.576;2022-09-03T04:16:27;99358.88;;;17.28;100.00
38900;BME280;24660;43.238;26.576;2022-09-03T04:18:53;99365.13;;;17.36;100.00
38900;BME280;24660;43.238;26.576;2022-09-03T04:21:20;99368.50;;;17.30;100.00
38900;BME280;24660;43.238;26.576;2022-09-03T04:23:46;99367.84;;;17.36;100.00
38900;BME280;24660;43.238;26.576;2022-09-03T04:26:12;99379.66;;;17.19;100.00
38900;BME280;24660;43.238;26.576;2022-09-03T04:28:38;99380.84;;;17.25;100.00
38900;BME280;24660;43.238;26.576;2022-09-03T04:31:05;99385.22;;;17.26;100.00
38900;BME280;24660;43.238;26.576;2022-09-03T04:33:31;99390.94;;;17.14;100.00
38900;BME280;24660;43.238;26.576;2022-09-03T04:36:01;99384.88;;;17.04;100.00
38900;BME280;24660;43.238;26.576;2022-09-03T04:38:28;99399.75;;;17.25;100.00
38900;BME280;24660;43.238;26.576;2022-09-03T04:40:53;99393.34;;;17.17;100.00
38900;BME280;24660;43.238;26.576;2022-09-03T04:43:18;99396.53;;;17.29;100.00
38900;BME280;24660;43.238;26.576;2022-09-03T04:45:44;99387.94;;;17.17;100.00
38900;BME280;24660;43.238;26.576;2022-09-03T04:48:09;99391.44;;;17.02;100.00
38900;BME280;24660;43.238;26.576;2022-09-03T04:50:35;99400.72;;;16.99;100.00
38900;BME280;24660;43.238;26.576;2022-09-03T04:53:02;99408.69;;;17.17;100.00
38900;BME280;24660;43.238;26.576;2022-09-03T04:55:33;99416.44;;;17.04;100.00
38900;BME280;24660;43.238;26.576;2022-09-03T04:57:59;99404.16;;;17.17;100.00
38900;BME280;24660;43.238;26.576;2022-09-03T05:00:24;99414.28;;;17.24;100.00
38900;BME280;24660;43.238;26.576;2022-09-03T05:02:49;99402.13;;;17.19;100.00
38900;BME280;24660;43.238;26.576;2022-09-03T05:05:16;99404.97;;;17.10;100.00
38900;BME280;24660;43.238;26.576;2022-09-03T05:07:42;99398.03;;;17.07;100.00
38900;BME280;24660;43.238;26.576;2022-09-03T05:10:08;99394.66;;;17.05;100.00
38900;BME280;24660;43.238;26.576;2022-09-03T05:12:40;99405.13;;;17.08;100.00
38900;BME280;24660;43.238;26.576;2022-09-03T05:15:05;99405.63;;;17.12;100.00
38900;BME280;24660;43.238;26.576;2022-09-03T05:17:30;99415.59;;;17.11;100.00
38900;BME280;24660;43.238;26.576;2022-09-03T05:19:56;99400.94;;;17.22;100.00
38900;BME280;24660;43.238;26.576;2022-09-03T05:22:22;99385.88;;;17.11;100.00
38900;BME280;24660;43.238;26.576;2022-09-03T05:24:47;99388.44;;;16.54;100.00
38900;BME280;24660;43.238;26.576;2022-09-03T05:27:14;99406.25;;;16.39;100.00
38900;BME280;24660;43.238;26.576;2022-09-03T05:29:41;99408.38;;;16.61;100.00
38900;BME280;24660;43.238;26.576;2022-09-03T05:32:06;99408.88;;;16.65;100.00
38900;BME280;24660;43.238;26.576;2022-09-03T05:34:31;99420.25;;;16.85;100.00
38900;BME280;24660;43.238;26.576;2022-09-03T05:36:57;99408.16;;;16.97;100.00
38900;BME280;24660;43.238;26.576;2022-09-03T05:39:22;99396.69;;;17.03;100.00
38900;BME280;24660;43.238;26.576;2022-09-03T05:41:48;99395.69;;;17.04;100.00
38900;BME280;24660;43.238;26.576;2022-09-03T05:44:16;99391.28;;;17.11;100.00
38900;BME280;24660;43.238;26.576;2022-09-03T05:46:41;99387.56;;;16.96;100.00
38900;BME280;24660;43.238;26.576;2022-09-03T05:49:07;99392.47;;;17.17;100.00
38900;BME280;24660;43.238;26.576;2022-09-03T05:51:33;99396.88;;;17.42;100.00
38900;BME280;24660;43.238;26.576;2022-09-03T05:53:59;99409.22;;;17.20;100.00
38900;BME280;24660;43.238;26.576;2022-09-03T05:56:25;99412.25;;;17.34;100.00
38900;BME280;24660;43.238;26.576;2022-09-03T05:58:51;99418.00;;;17.71;100.00
38900;BME280;24660;43.238;26.576;2022-09-03T06:01:18;99403.66;;;17.63;100.00
38900;BME280;24660;43.238;26.576;2022-09-03T06:03:44;99391.81;;;17.47;100.00
38900;BME280;24660;43.238;26.576;2022-09-03T06:06:09;99388.94;;;17.41;100.00
38900;BME280;24660;43.238;26.576;2022-09-03T06:08:35;99380.84;;;17.41;100.00
38900;BME280;24660;43.238;26.576;2022-09-03T06:11:02;99377.13;;;17.42;100.00
38900;BME280;24660;43.238;26.576;2022-09-03T06:13:28;99388.63;;;17.60;100.00
38900;BME280;24660;43.238;26.576;2022-09-03T06:15:56;99387.41;;;17.63;100.00
38900;BME280;24660;43.238;26.576;2022-09-03T06:18:21;99389.28;;;17.70;100.00
38900;BME280;24660;43.238;26.576;2022-09-03T06:20:54;99400.28;;;17.61;100.00
38900;BME280;24660;43.238;26.576;2022-09-03T06:23:20;99401.97;;;17.62;100.00
38900;BME280;24660;43.238;26.576;2022-09-03T06:25:46;99415.13;;;17.57;100.00
38900;BME280;24660;43.238;26.576;2022-09-03T06:28:11;99411.59;;;17.89;100.00
38900;BME280;24660;43.238;26.576;2022-09-03T06:30:36;99415.81;;;17.91;100.00
38900;BME280;24660;43.238;26.576;2022-09-03T06:33:04;99411.41;;;17.66;100.00
38900;BME280;24660;43.238;26.576;2022-09-03T06:35:30;99415.97;;;17.73;100.00
38900;BME280;24660;43.238;26.576;2022-09-03T06:37:55;99418.00;;;17.47;100.00
38900;BME280;24660;43.238;26.576;2022-09-03T06:40:20;99436.91;;;17.63;100.00
38900;BME280;24660;43.238;26.576;2022-09-03T06:42:57;99432.00;;;17.67;100.00
38900;BME280;24660;43.238;26.576;2022-09-03T06:45:25;99422.75;;;17.69;100.00
38900;BME280;24660;43.238;26.576;2022-09-03T06:47:52;99421.38;;;17.82;100.00
38900;BME280;24660;43.238;26.576;2022-09-03T06:50:17;99419.50;;;17.66;100.00
38900;BME280;24660;43.238;26.576;2022-09-03T06:52:43;99429.13;;;17.44;100.00
38900;BME280;24660;43.238;26.576;2022-09-03T06:55:08;99437.28;;;17.68;100.00
38900;BME280;24660;43.238;26.576;2022-09-03T06:57:33;99441.66;;;18.02;100.00
38900;BME280;24660;43.238;26.576;2022-09-03T06:59:59;99428.63;;;18.05;100.00
38900;BME280;24660;43.238;26.576;2022-09-03T07:02:24;99425.69;;;18.23;100.00
38900;BME280;24660;43.238;26.576;2022-09-03T07:04:50;99428.28;;;18.17;100.00
38900;BME280;24660;43.238;26.576;2022-09-03T07:07:15;99419.13;;;18.18;100.00
38900;BME280;24660;43.238;26.576;2022-09-03T07:09:40;99420.81;;;18.10;100.00
38900;BME280;24660;43.238;26.576;2022-09-03T07:12:06;99417.63;;;17.99;100.00
38900;BME280;24660;43.238;26.576;2022-09-03T07:14:31;99427.78;;;18.05;100.00
38900;BME280;24660;43.238;26.576;2022-09-03T07:16:57;99429.69;;;18.44;100.00
38900;BME280;24660;43.238;26.576;2022-09-03T07:19:22;99420.06;;;18.41;100.00
38900;BME280;24660;43.238;26.576;2022-09-03T07:21:47;99422.94;;;18.39;100.00
38900;BME280;24660;43.238;26.576;2022-09-03T07:24:13;99424.50;;;18.34;100.00
38900;BME280;24660;43.238;26.576;2022-09-03T07:26:39;99434.25;;;18.43;100.00
38900;BME280;24660;43.238;26.576;2022-09-03T07:29:07;99433.00;;;18.62;100.00
38900;BME280;24660;43.238;26.576;2022-09-03T07:31:34;99429.00;;;18.42;100.00
38900;BME280;24660;43.238;26.576;2022-09-03T07:34:00;99435.91;;;18.60;100.00
38900;BME280;24660;43.238;26.576;2022-09-03T07:36:28;99439.28;;;18.62;100.00
38900;BME280;24660;43.238;26.576;2022-09-03T07:38:54;99438.66;;;18.44;100.00
38900;BME280;24660;43.238;26.576;2022-09-03T07:41:21;99439.66;;;18.43;100.00
38900;BME280;24660;43.238;26.576;2022-09-03T07:43:47;99431.53;;;18.51;100.00
38900;BME280;24660;43.238;26.576;2022-09-03T07:46:14;99441.94;;;18.15;100.00
38900;BME280;24660;43.238;26.576;2022-09-03T07:48:40;99439.59;;;18.20;100.00
38900;BME280;24660;43.238;26.576;2022-09-03T07:51:07;99442.41;;;18.35;100.00
38900;BME280;24660;43.238;26.576;2022-09-03T07:53:33;99443.56;;;18.40;100.00
38900;BME280;24660;43.238;26.576;2022-09-03T07:56:00;99444.94;;;18.45;100.00
38900;BME280;24660;43.238;26.576;2022-09-03T07:58:27;99453.06;;;18.36;100.00
38900;BME280;24660;43.238;26.576;2022-09-03T08:00:52;99443.78;;;18.31;100.00
38900;BME280;24660;43.238;26.576;2022-09-03T08:03:21;99451.25;;;18.13;100.00
38900;BME280;24660;43.238;26.576;2022-09-03T08:05:46;99452.44;;;18.10;100.00
38900;BME280;24660;43.238;26.576;2022-09-03T08:08:11;99450.41;;;18.12;100.00
38900;BME280;24660;43.238;26.576;2022-09-03T08:10:38;99450.75;;;18.01;100.00
38900;BME280;24660;43.238;26.576;2022-09-03T08:13:04;99452.47;;;17.86;100.00
38900;BME280;24660;43.238;26.576;2022-09-03T08:15:30;99447.91;;;17.94;100.00
38900;BME280;24660;43.238;26.576;2022-09-03T08:17:55;99453.13;;;17.96;100.00
38900;BME280;24660;43.238;26.576;2022-09-03T08:20:20;99453.16;;;17.88;100.00
38900;BME280;24660;43.238;26.576;2022-09-03T08:22:46;99445.22;;;18.02;100.00
38900;BME280;24660;43.238;26.576;2022-09-03T08:25:12;99448.84;;;18.26;100.00
38900;BME280;24660;43.238;26.576;2022-09-03T08:27:38;99455.50;;;18.07;100.00
38900;BME280;24660;43.238;26.576;2022-09-03T08:30:03;99455.53;;;17.91;100.00
38900;BME280;24660;43.238;26.576;2022-09-03T08:32:29;99453.31;;;17.70;100.00
38900;BME280;24660;43.238;26.576;2022-09-03T08:34:54;99460.75;;;17.84;100.00
38900;BME280;24660;43.238;26.576;2022-09-03T08:37:19;99464.63;;;17.65;100.00
38900;BME280;24660;43.238;26.576;2022-09-03T08:39:45;99472.59;;;17.75;100.00
38900;BME280;24660;43.238;26.576;2022-09-03T08:42:17;99482.56;;;17.83;100.00
38900;BME280;24660;43.238;26.576;2022-09-03T08:44:45;99488.47;;;17.86;100.00
38900;BME280;24660;43.238;26.576;2022-09-03T08:49:48;99484.94;;;17.77;100.00
38900;BME280;24660;43.238;26.576;2022-09-03T08:52:28;99491.34;;;17.93;100.00
38900;BME280;24660;43.238;26.576;2022-09-03T08:57:39;99477.16;;;17.91;100.00
38900;BME280;24660;43.238;26.576;2022-09-03T09:00:06;99491.84;;;17.72;100.00
38900;BME280;24660;43.238;26.576;2022-09-03T09:03:20;99493.56;;;17.89;100.00
38900;BME280;24660;43.238;26.576;2022-09-03T09:05:23;99503.47;;;17.64;100.00
38900;BME280;24660;43.238;26.576;2022-09-03T09:07:51;99505.16;;;17.57;100.00
38900;BME280;24660;43.238;26.576;2022-09-03T09:10:22;99525.28;;;17.63;100.00
38900;BME280;24660;43.238;26.576;2022-09-03T09:13:02;99511.56;;;17.40;100.00
38900;BME280;24660;43.238;26.576;2022-09-03T09:20:38;99495.69;;;17.37;100.00
38900;BME280;24660;43.238;26.576;2022-09-03T09:23:07;99514.44;;;17.55;100.00
38900;BME280;24660;43.238;26.576;2022-09-03T09:25:35;99522.41;;;17.64;100.00
38900;BME280;24660;43.238;26.576;2022-09-03T09:28:12;99517.19;;;18.12;100.00
38900;BME280;24660;43.238;26.576;2022-09-03T09:30:40;99504.88;;;18.17;100.00
38900;BME280;24660;43.238;26.576;2022-09-03T09:33:06;99494.03;;;18.17;100.00
38900;BME280;24660;43.238;26.576;2022-09-03T09:35:31;99500.28;;;18.09;100.00
38900;BME280;24660;43.238;26.576;2022-09-03T09:37:57;99513.47;;;18.13;100.00
38900;BME280;24660;43.238;26.576;2022-09-03T09:40:32;99505.50;;;18.35;100.00
38900;BME280;24660;43.238;26.576;2022-09-03T09:45:40;99510.28;;;18.17;100.00
38900;BME280;24660;43.238;26.576;2022-09-03T09:48:08;99515.47;;;18.27;100.00
38900;BME280;24660;43.238;26.576;2022-09-03T09:50:34;99519.09;;;18.03;100.00
38900;BME280;24660;43.238;26.576;2022-09-03T09:53:01;99500.63;;;18.06;100.00
38900;BME280;24660;43.238;26.576;2022-09-03T09:55:29;99494.22;;;17.99;100.00
38900;BME280;24660;43.238;26.576;2022-09-03T10:00:35;99502.00;;;17.86;100.00
38900;BME280;24660;43.238;26.576;2022-09-03T10:03:05;99507.91;;;17.82;100.00
38900;BME280;24660;43.238;26.576;2022-09-03T10:05:31;99499.78;;;18.30;100.00
38900;BME280;24660;43.238;26.576;2022-09-03T10:08:00;99498.19;;;18.52;100.00
38900;BME280;24660;43.238;26.576;2022-09-03T10:10:26;99498.94;;;18.14;100.00
38900;BME280;24660;43.238;26.576;2022-09-03T10:12:58;99504.88;;;18.17;100.00
38900;BME280;24660;43.238;26.576;2022-09-03T10:15:36;99500.34;;;18.57;100.00
38900;BME280;24660;43.238;26.576;2022-09-03T10:20:34;99520.59;;;17.97;100.00
38900;BME280;24660;43.238;26.576;2022-09-03T10:25:50;99533.44;;;18.03;100.00
38900;BME280;24660;43.238;26.576;2022-09-03T10:28:20;99530.91;;;17.77;100.00
38900;BME280;24660;43.238;26.576;2022-09-03T10:33:15;99534.28;;;17.96;100.00
38900;BME280;24660;43.238;26.576;2022-09-03T10:35:45;99534.09;;;18.22;100.00
38900;BME280;24660;43.238;26.576;2022-09-03T10:40:41;99547.63;;;17.81;100.00
38900;BME280;24660;43.238;26.576;2022-09-03T10:43:17;99557.09;;;17.93;100.00
38900;BME280;24660;43.238;26.576;2022-09-03T10:45:59;99561.91;;;17.57;100.00
38900;BME280;24660;43.238;26.576;2022-09-03T11:01:28;99532.75;;;18.34;100.00
38900;BME280;24660;43.238;26.576;2022-09-03T11:06:29;99527.38;;;18.89;100.00
38900;BME280;24660;43.238;26.576;2022-09-03T11:09:04;99514.22;;;18.62;100.00
38900;BME280;24660;43.238;26.576;2022-09-03T11:16:24;99531.31;;;18.79;100.00
38900;BME280;24660;43.238;26.576;2022-09-03T11:18:53;99532.91;;;19.04;100.00
38900;BME280;24660;43.238;26.576;2022-09-03T11:21:21;99521.16;;;19.12;100.00
38900;BME280;24660;43.238;26.576;2022-09-03T11:23:50;99524.72;;;19.12;100.00
38900;BME280;24660;43.238;26.576;2022-09-03T11:26:17;99532.63;;;19.22;100.00
38900;BME280;24660;43.238;26.576;2022-09-03T11:28:53;99532.41;;;19.01;100.00
38900;BME280;24660;43.238;26.576;2022-09-03T11:33:48;99542.97;;;18.79;100.00
38900;BME280;24660;43.238;26.576;2022-09-03T11:36:22;99552.28;;;18.77;100.00
38900;BME280;24660;43.238;26.576;2022-09-03T11:38:48;99547.72;;;18.69;100.00
38900;BME280;24660;43.238;26.576;2022-09-03T11:41:14;99544.84;;;18.79;100.00
38900;BME280;24660;43.238;26.576;2022-09-03T11:43:48;99550.19;;;19.03;100.00
38900;BME280;24660;43.238;26.576;2022-09-03T11:46:28;99540.66;;;19.07;100.00
38900;BME280;24660;43.238;26.576;2022-09-03T11:48:55;99533.28;;;19.24;100.00
38900;BME280;24660;43.238;26.576;2022-09-03T11:51:30;99541.50;;;19.08;100.00
38900;BME280;24660;43.238;26.576;2022-09-03T11:54:05;99539.91;;;18.90;100.00
38900;BME280;24660;43.238;26.576;2022-09-03T11:56:32;99543.81;;;18.80;100.00
38900;BME280;24660;43.238;26.576;2022-09-03T12:01:27;99544.41;;;18.98;100.00
38900;BME280;24660;43.238;26.576;2022-09-03T12:03:56;99553.50;;;18.50;100.00
38900;BME280;24660;43.238;26.576;2022-09-03T12:09:27;99561.91;;;18.87;100.00
38900;BME280;24660;43.238;26.576;2022-09-03T12:12:26;99564.31;;;18.74;100.00
38900;BME280;24660;43.238;26.576;2022-09-03T12:14:40;99560.06;;;18.88;100.00
38900;BME280;24660;43.238;26.576;2022-09-03T12:19:39;99564.84;;;18.53;100.00
38900;BME280;24660;43.238;26.576;2022-09-03T12:22:11;99570.06;;;18.63;100.00
38900;BME280;24660;43.238;26.576;2022-09-03T12:24:37;99565.13;;;18.83;100.00
38900;BME280;24660;43.238;26.576;2022-09-03T12:27:03;99559.72;;;18.83;100.00
38900;BME280;24660;43.238;26.576;2022-09-03T12:29:29;99555.88;;;18.61;100.00
38900;BME280;24660;43.238;26.576;2022-09-03T12:31:55;99565.34;;;18.49;100.00
38900;BME280;24660;43.238;26.576;2022-09-03T12:34:30;99574.69;;;18.30;100.00
38900;BME280;24660;43.238;26.576;2022-09-03T12:36:56;99570.94;;;18.39;100.00
38900;BME280;24660;43.238;26.576;2022-09-03T12:39:23;99577.91;;;18.09;100.00
38900;BME280;24660;43.238;26.576;2022-09-03T12:44:31;99572.16;;;18.04;100.00
38900;BME280;24660;43.238;26.576;2022-09-03T12:49:38;99573.00;;;18.45;100.00
38900;BME280;24660;43.238;26.576;2022-09-03T12:52:07;99572.16;;;18.12;100.00
38900;BME280;24660;43.238;26.576;2022-09-03T12:54:36;99578.88;;;17.84;100.00
38900;BME280;24660;43.238;26.576;2022-09-03T12:57:03;99578.09;;;17.41;100.00
38900;BME280;24660;43.238;26.576;2022-09-03T12:59:30;99593.97;;;17.44;100.00
38900;BME280;24660;43.238;26.576;2022-09-03T13:01:58;99589.63;;;17.51;100.00
38900;BME280;24660;43.238;26.576;2022-09-03T13:04:26;99586.88;;;17.43;100.00
38900;BME280;24660;43.238;26.576;2022-09-03T13:07:05;99585.81;;;17.86;100.00
38900;BME280;24660;43.238;26.576;2022-09-03T13:09:33;99572.81;;;18.47;100.00
38900;BME280;24660;43.238;26.576;2022-09-03T13:12:00;99561.81;;;18.40;100.00
38900;BME280;24660;43.238;26.576;2022-09-03T13:14:40;99551.66;;;18.58;100.00
38900;BME280;24660;43.238;26.576;2022-09-03T13:17:09;99537.91;;;18.76;100.00
38900;BME280;24660;43.238;26.576;2022-09-03T13:22:08;99528.84;;;19.00;100.00
38900;BME280;24660;43.238;26.576;2022-09-03T13:33:04;99542.69;;;18.66;100.00
38900;BME280;24660;43.238;26.576;2022-09-03T13:42:57;99538.78;;;18.52;100.00
38900;BME280;24660;43.238;26.576;2022-09-03T13:45:29;99539.56;;;18.85;100.00
38900;BME280;24660;43.238;26.576;2022-09-03T13:50:40;99547.34;;;18.88;100.00
38900;BME280;24660;43.238;26.576;2022-09-03T13:53:16;99547.66;;;19.02;100.00
38900;BME280;24660;43.238;26.576;2022-09-03T13:55:46;99546.94;;;18.99;100.00
38900;BME280;24660;43.238;26.576;2022-09-03T14:06:19;99546.56;;;19.42;100.00
38900;BME280;24660;43.238;26.576;2022-09-03T14:08:55;99541.06;;;19.27;100.00
38900;BME280;24660;43.238;26.576;2022-09-03T14:13:57;99542.00;;;19.42;100.00
38900;BME280;24660;43.238;26.576;2022-09-03T14:17:09;99548.50;;;19.33;100.00
38900;BME280;24660;43.238;26.576;2022-09-03T14:19:14;99550.50;;;19.39;100.00
38900;BME280;24660;43.238;26.576;2022-09-03T14:21:43;99558.56;;;19.55;100.00
38900;BME280;24660;43.238;26.576;2022-09-03T14:26:55;99544.41;;;19.06;100.00
38900;BME280;24660;43.238;26.576;2022-09-03T14:29:29;99538.44;;;19.11;100.00
38900;BME280;24660;43.238;26.576;2022-09-03T14:39:33;99558.69;;;19.31;100.00
38900;BME280;24660;43.238;26.576;2022-09-03T14:47:47;99568.69;;;19.31;100.00
38900;BME280;24660;43.238;26.576;2022-09-03T14:52:29;99575.13;;;19.30;100.00
38900;BME280;24660;43.238;26.576;2022-09-03T14:57:48;99571.81;;;19.42;100.00
38900;BME280;24660;43.238;26.576;2022-09-03T15:00:20;99569.53;;;19.31;100.00
38900;BME280;24660;43.238;26.576;2022-09-03T15:07:48;99581.50;;;18.97;100.00
38900;BME280;24660;43.238;26.576;2022-09-03T15:12:57;99577.09;;;19.05;100.00
38900;BME280;24660;43.238;26.576;2022-09-03T15:15:28;99578.31;;;18.86;100.00
38900;BME280;24660;43.238;26.576;2022-09-03T15:20:30;99587.31;;;18.86;100.00
38900;BME280;24660;43.238;26.576;2022-09-03T15:30:40;99607.84;;;18.64;100.00
38900;BME280;24660;43.238;26.576;2022-09-03T15:33:11;99609.34;;;18.26;100.00
38900;BME280;24660;43.238;26.576;2022-09-03T15:35:42;99608.69;;;18.32;100.00
38900;BME280;24660;43.238;26.576;2022-09-03T15:38:11;99598.50;;;18.59;100.00
38900;BME280;24660;43.238;26.576;2022-09-03T15:43:14;99613.38;;;18.55;100.00
38900;BME280;24660;43.238;26.576;2022-09-03T15:45:50;99605.28;;;18.47;100.00